createdAt,value
2022-08-26T00:02:20.501Z,22.84
2022-08-26T00:04:50.117Z,22.82
2022-08-26T00:07:20.670Z,22.73
2022-08-26T00:09:50.007Z,22.45
2022-08-26T00:12:19.235Z,22.38
2022-08-26T00:15:01.033Z,22.49
2022-08-26T00:17:30.294Z,22.60
2022-08-26T00:20:01.796Z,22.63
2022-08-26T00:22:32.891Z,22.64
2022-08-26T00:25:02.137Z,22.69
2022-08-26T00:27:34.262Z,22.64
2022-08-26T00:30:06.929Z,22.46
2022-08-26T00:32:37.435Z,22.13
2022-08-26T00:35:08.013Z,21.81
2022-08-26T00:37:38.418Z,22.09
2022-08-26T00:40:11.476Z,22.14
2022-08-26T00:42:40.454Z,21.71
2022-08-26T00:45:17.249Z,21.43
2022-08-26T00:47:50.070Z,21.18
2022-08-26T00:50:24.514Z,21.67
2022-08-26T00:52:57.446Z,21.97
2022-08-26T00:55:37.920Z,22.10
2022-08-26T00:58:08.689Z,22.08
2022-08-26T01:00:38.349Z,22.01
2022-08-26T01:03:12.619Z,21.25
2022-08-26T01:05:42.330Z,21.52
2022-08-26T01:08:13.750Z,21.73
2022-08-26T01:10:42.765Z,21.90
2022-08-26T01:13:15.572Z,21.92
2022-08-26T01:15:47.792Z,22.01
2022-08-26T01:18:20.449Z,22.04
2022-08-26T01:21:00.029Z,22.09
2022-08-26T01:23:34.016Z,22.09
2022-08-26T01:26:08.953Z,22.03
2022-08-26T01:28:51.753Z,21.81
2022-08-26T01:31:25.612Z,21.52
2022-08-26T01:34:03.586Z,21.21
2022-08-26T01:36:33.609Z,21.38
2022-08-26T01:39:05.857Z,21.66
2022-08-26T01:41:38.204Z,21.79
2022-08-26T01:44:10.954Z,21.87
2022-08-26T01:46:40.445Z,21.89
2022-08-26T01:49:10.343Z,21.92
2022-08-26T01:51:40.266Z,21.86
2022-08-26T01:54:12.075Z,21.73
2022-08-26T01:56:42.117Z,21.43
2022-08-26T01:59:16.392Z,21.50
2022-08-26T02:01:47.062Z,21.66
2022-08-26T02:04:23.374Z,21.70
2022-08-26T02:06:54.185Z,21.69
2022-08-26T02:09:25.924Z,21.33
2022-08-26T02:11:57.083Z,21.48
2022-08-26T02:14:30.425Z,21.62
2022-08-26T02:16:59.973Z,21.71
2022-08-26T02:19:32.932Z,21.76
2022-08-26T02:22:05.343Z,21.62
2022-08-26T02:24:52.577Z,21.61
2022-08-26T02:27:24.906Z,21.60
2022-08-26T02:30:00.757Z,21.09
2022-08-26T02:32:30.710Z,21.02
2022-08-26T02:35:03.209Z,21.18
2022-08-26T02:37:33.981Z,21.23
2022-08-26T02:40:07.351Z,21.20
2022-08-26T02:42:37.934Z,21.01
2022-08-26T02:45:08.064Z,20.86
2022-08-26T02:47:37.875Z,21.01
2022-08-26T02:50:08.240Z,21.23
2022-08-26T02:52:37.556Z,21.30
2022-08-26T02:55:09.590Z,21.35
2022-08-26T02:57:38.122Z,21.33
2022-08-26T03:00:11.422Z,21.25
2022-08-26T03:02:43.169Z,21.23
2022-08-26T03:05:12.826Z,21.12
2022-08-26T03:07:42.378Z,21.12
2022-08-26T03:10:15.057Z,20.96
2022-08-26T03:12:48.104Z,20.93
2022-08-26T03:15:18.522Z,20.43
2022-08-26T03:17:50.251Z,20.11
2022-08-26T03:20:20.438Z,20.44
2022-08-26T03:22:51.687Z,20.60
2022-08-26T03:25:23.066Z,20.54
2022-08-26T03:27:53.486Z,20.61
2022-08-26T03:30:45.440Z,20.62
2022-08-26T03:33:15.734Z,20.27
2022-08-26T03:35:47.640Z,19.98
2022-08-26T03:38:21.091Z,19.43
2022-08-26T03:40:52.983Z,19.64
2022-08-26T03:43:26.724Z,20.12
2022-08-26T03:45:57.565Z,20.37
2022-08-26T03:48:25.411Z,20.39
2022-08-26T03:50:53.288Z,20.28
2022-08-26T03:53:21.339Z,20.19
2022-08-26T03:55:51.763Z,20.39
2022-08-26T03:58:20.486Z,20.29
2022-08-26T04:00:49.017Z,20.01
2022-08-26T04:03:38.446Z,19.27
2022-08-26T04:06:07.037Z,19.30
2022-08-26T04:08:34.903Z,19.26
2022-08-26T04:11:04.300Z,19.66
2022-08-26T04:13:32.939Z,19.43
2022-08-26T04:16:00.861Z,19.73
2022-08-26T04:18:37.017Z,20.12
2022-08-26T04:21:08.076Z,20.23
2022-08-26T04:23:47.305Z,20.27
2022-08-26T04:26:17.477Z,20.15
2022-08-26T04:28:45.445Z,20.10
2022-08-26T04:31:14.645Z,19.89
2022-08-26T04:33:43.772Z,19.79
2022-08-26T04:36:11.955Z,19.52
2022-08-26T04:38:40.148Z,19.65
2022-08-26T04:41:15.546Z,20.06
2022-08-26T04:43:46.917Z,19.77
2022-08-26T04:46:17.344Z,19.97
2022-08-26T04:48:45.801Z,20.20
2022-08-26T04:51:13.716Z,20.37
2022-08-26T04:53:41.685Z,20.49
2022-08-26T04:56:09.882Z,20.10
2022-08-26T04:58:38.244Z,20.01
2022-08-26T05:01:08.346Z,20.50
2022-08-26T05:03:37.366Z,20.71
2022-08-26T05:06:09.029Z,20.80
2022-08-26T05:08:39.773Z,20.82
2022-08-26T05:11:09.798Z,20.86
2022-08-26T05:13:39.206Z,20.99
2022-08-26T05:16:11.667Z,21.10
2022-08-26T05:18:44.668Z,21.25
2022-08-26T05:21:19.959Z,21.32
2022-08-26T05:23:49.039Z,21.27
2022-08-26T05:26:17.374Z,21.42
2022-08-26T05:28:51.126Z,21.55
2022-08-26T05:31:31.207Z,21.67
2022-08-26T05:33:59.913Z,21.78
2022-08-26T05:36:36.180Z,21.86
2022-08-26T05:39:10.416Z,21.72
2022-08-26T05:41:40.974Z,21.83
2022-08-26T05:44:14.091Z,21.79
2022-08-26T05:46:44.664Z,21.82
2022-08-26T05:49:13.837Z,22.02
2022-08-26T05:51:47.582Z,21.96
2022-08-26T05:54:22.003Z,22.04
2022-08-26T05:56:50.859Z,22.21
2022-08-26T05:59:24.514Z,22.17
2022-08-26T06:01:55.577Z,22.22
2022-08-26T06:04:27.569Z,22.19
2022-08-26T06:06:56.447Z,22.31
2022-08-26T06:09:24.517Z,22.22
2022-08-26T06:11:52.756Z,22.26
2022-08-26T06:14:21.592Z,22.37
2022-08-26T06:16:49.769Z,22.47
2022-08-26T06:19:20.028Z,22.46
2022-08-26T06:21:54.059Z,22.44
2022-08-26T06:24:40.127Z,22.31
2022-08-26T06:27:11.305Z,22.51
2022-08-26T06:29:39.367Z,22.67
2022-08-26T06:32:07.433Z,22.79
2022-08-26T06:34:38.530Z,22.57
2022-08-26T06:37:08.872Z,22.71
2022-08-26T06:39:40.195Z,22.75
2022-08-26T06:42:09.359Z,22.84
2022-08-26T06:44:39.088Z,22.98
2022-08-26T06:47:09.172Z,23.15
2022-08-26T06:49:38.460Z,23.32
2022-08-26T06:52:07.827Z,23.26
2022-08-26T06:54:37.036Z,23.27
2022-08-26T06:57:08.973Z,23.51
2022-08-26T06:59:36.931Z,23.69
2022-08-26T07:02:06.113Z,23.83
2022-08-26T07:04:36.228Z,23.66
2022-08-26T07:07:05.482Z,23.89
2022-08-26T07:09:35.289Z,23.94
2022-08-26T07:12:06.819Z,24.08
2022-08-26T07:14:35.875Z,23.91
2022-08-26T07:17:03.755Z,24.18
2022-08-26T07:19:31.943Z,24.25
2022-08-26T07:22:01.875Z,24.47
2022-08-26T07:24:32.180Z,24.53
2022-08-26T07:27:02.808Z,24.74
2022-08-26T07:29:31.257Z,24.78
2022-08-26T07:31:59.670Z,24.97
2022-08-26T07:34:28.182Z,24.61
2022-08-26T07:36:57.071Z,24.18
2022-08-26T07:39:28.675Z,24.41
2022-08-26T07:42:01.677Z,24.75
2022-08-26T07:44:36.308Z,25.00
2022-08-26T07:47:10.558Z,25.07
2022-08-26T07:49:52.967Z,25.28
2022-08-26T07:52:26.159Z,25.02
2022-08-26T07:54:54.850Z,25.03
2022-08-26T07:57:24.423Z,25.17
2022-08-26T07:59:55.118Z,25.31
2022-08-26T08:02:23.994Z,25.43
2022-08-26T08:04:52.738Z,25.41
2022-08-26T08:07:21.375Z,25.77
2022-08-26T08:10:11.469Z,25.99
2022-08-26T08:12:42.397Z,25.86
2022-08-26T08:15:13.277Z,25.90
2022-08-26T08:17:47.140Z,26.09
2022-08-26T08:20:23.078Z,25.91
2022-08-26T08:22:54.141Z,26.45
2022-08-26T08:25:23.202Z,26.35
2022-08-26T08:27:52.613Z,26.19
2022-08-26T08:30:23.176Z,26.49
2022-08-26T08:32:52.174Z,26.40
2022-08-26T08:35:23.601Z,26.40
2022-08-26T08:37:54.419Z,26.71
2022-08-26T08:40:27.655Z,26.32
2022-08-26T08:43:03.793Z,26.76
2022-08-26T08:45:37.875Z,26.94
2022-08-26T08:48:21.341Z,26.94
2022-08-26T08:51:04.275Z,27.13
2022-08-26T08:53:36.410Z,27.03
2022-08-26T08:56:13.163Z,27.28
2022-08-26T08:58:53.565Z,27.44
2022-08-26T09:01:31.446Z,28.02
2022-08-26T09:04:21.328Z,28.05
2022-08-26T09:06:53.868Z,28.12
2022-08-26T09:09:25.034Z,28.87
2022-08-26T09:11:54.320Z,29.01
2022-08-26T09:14:24.054Z,29.78
2022-08-26T09:17:04.961Z,30.05
2022-08-26T09:19:42.463Z,30.41
2022-08-26T09:22:26.873Z,30.72
2022-08-26T09:24:55.210Z,32.05
2022-08-26T09:27:39.044Z,31.85
2022-08-26T09:30:11.543Z,31.34
2022-08-26T09:32:40.195Z,31.90
2022-08-26T09:35:24.552Z,32.86
2022-08-26T09:37:53.007Z,32.82
2022-08-26T09:40:27.572Z,32.20
2022-08-26T09:43:09.801Z,33.45
2022-08-26T09:45:49.352Z,33.67
2022-08-26T09:48:28.319Z,33.66
2022-08-26T09:51:00.574Z,34.25
2022-08-26T09:53:31.557Z,33.08
2022-08-26T09:56:16.907Z,33.08
2022-08-26T09:58:48.631Z,34.38
2022-08-26T10:01:30.076Z,34.18
2022-08-26T10:04:07.639Z,34.71
2022-08-26T10:06:39.897Z,34.61
2022-08-26T10:09:37.269Z,34.99
2022-08-26T10:12:11.482Z,34.63
2022-08-26T10:17:24.570Z,32.35
2022-08-26T10:19:57.975Z,33.81
2022-08-26T10:22:31.411Z,33.00
2022-08-26T10:25:04.747Z,32.13
2022-08-26T10:27:41.465Z,33.77
2022-08-26T10:30:21.811Z,33.53
2022-08-26T10:32:56.767Z,32.19
2022-08-26T10:35:26.985Z,33.21
2022-08-26T10:37:57.804Z,34.08
2022-08-26T10:40:28.460Z,34.26
2022-08-26T10:43:07.223Z,33.91
2022-08-26T10:45:42.968Z,33.73
2022-08-26T10:48:18.365Z,33.57
2022-08-26T10:50:49.183Z,34.30
2022-08-26T10:53:24.911Z,32.68
2022-08-26T10:56:00.526Z,32.00
2022-08-26T10:58:39.139Z,31.39
2022-08-26T11:01:33.093Z,31.49
2022-08-26T11:04:12.455Z,32.00
2022-08-26T11:06:41.941Z,32.04
2022-08-26T11:09:13.203Z,33.22
2022-08-26T11:11:51.865Z,34.37
2022-08-26T11:14:53.629Z,34.17
2022-08-26T11:17:57.376Z,35.61
2022-08-26T11:20:41.531Z,33.79
2022-08-26T11:23:50.332Z,34.50
2022-08-26T11:26:35.831Z,34.63
2022-08-26T11:29:13.498Z,32.95
2022-08-26T11:31:58.552Z,31.74
2022-08-26T11:34:55.163Z,33.13
2022-08-26T11:37:32.965Z,32.51
2022-08-26T11:40:04.558Z,32.31
2022-08-26T11:42:40.920Z,32.46
2022-08-26T11:45:20.065Z,32.92
2022-08-26T11:47:49.366Z,32.65
2022-08-26T11:50:20.667Z,32.99
2022-08-26T11:52:54.410Z,34.47
2022-08-26T11:55:24.074Z,34.81
2022-08-26T11:57:55.495Z,33.29
2022-08-26T12:00:25.896Z,33.30
2022-08-26T12:02:57.054Z,34.13
2022-08-26T12:05:31.419Z,33.99
2022-08-26T12:08:08.019Z,33.20
2022-08-26T12:10:37.739Z,33.91
2022-08-26T12:13:10.557Z,34.81
2022-08-26T12:15:38.480Z,34.39
2022-08-26T12:18:28.694Z,34.49
2022-08-26T12:21:03.172Z,33.18
2022-08-26T12:23:45.987Z,34.49
2022-08-26T12:26:23.934Z,34.26
2022-08-26T12:28:57.520Z,33.18
2022-08-26T12:31:31.456Z,33.33
2022-08-26T12:34:02.435Z,32.31
2022-08-26T12:36:33.283Z,32.50
2022-08-26T12:39:11.147Z,32.51
2022-08-26T12:41:48.552Z,33.64
2022-08-26T12:44:54.324Z,33.60
2022-08-26T12:47:41.888Z,34.26
2022-08-26T12:50:19.066Z,32.74
2022-08-26T12:52:56.504Z,32.28
2022-08-26T12:55:36.371Z,32.72
2022-08-26T12:58:15.078Z,33.79
2022-08-26T13:00:45.220Z,32.82
2022-08-26T13:03:38.264Z,32.66
2022-08-26T13:06:18.451Z,32.31
2022-08-26T13:08:47.533Z,32.60
2022-08-26T13:11:20.292Z,32.27
2022-08-26T13:13:51.621Z,31.93
2022-08-26T13:16:20.528Z,31.32
2022-08-26T13:18:49.895Z,31.46
2022-08-26T13:21:20.530Z,31.30
2022-08-26T13:23:51.112Z,31.23
2022-08-26T13:26:21.475Z,30.97
2022-08-26T13:28:59.158Z,30.64
2022-08-26T13:31:32.411Z,31.32
2022-08-26T13:34:07.935Z,30.88
2022-08-26T13:36:35.966Z,30.71
2022-08-26T13:39:08.490Z,30.22
2022-08-26T13:41:38.230Z,30.37
2022-08-26T13:44:08.265Z,29.93
2022-08-26T13:46:39.471Z,29.88
2022-08-26T13:49:08.207Z,30.38
2022-08-26T13:51:41.712Z,30.18
2022-08-26T13:54:10.224Z,29.91
2022-08-26T13:56:39.622Z,29.61
2022-08-26T13:59:07.880Z,29.37
2022-08-26T14:01:37.911Z,29.80
2022-08-26T14:04:05.829Z,30.15
2022-08-26T14:06:36.657Z,30.78
2022-08-26T14:09:06.272Z,30.31
2022-08-26T14:11:50.618Z,30.44
2022-08-26T14:14:26.874Z,30.63
2022-08-26T14:16:59.226Z,30.21
2022-08-26T14:19:29.612Z,30.10
2022-08-26T14:22:01.749Z,30.59
2022-08-26T14:24:29.938Z,29.69
2022-08-26T14:26:58.518Z,30.29
2022-08-26T14:29:27.835Z,30.62
2022-08-26T14:31:58.690Z,30.23
2022-08-26T14:34:29.675Z,30.18
2022-08-26T14:36:57.715Z,30.04
2022-08-26T14:39:37.377Z,30.71
2022-08-26T14:42:05.703Z,31.24
2022-08-26T14:44:35.464Z,30.25
2022-08-26T14:47:07.875Z,30.38
2022-08-26T14:49:37.771Z,29.68
2022-08-26T14:52:08.535Z,30.43
2022-08-26T14:54:36.892Z,30.46
2022-08-26T14:57:09.642Z,30.78
2022-08-26T14:59:41.655Z,30.77
2022-08-26T15:02:13.982Z,31.13
2022-08-26T15:04:58.742Z,30.41
2022-08-26T15:07:29.205Z,29.75
2022-08-26T15:09:59.213Z,29.71
2022-08-26T15:12:27.892Z,29.81
2022-08-26T15:14:57.192Z,30.02
2022-08-26T15:17:25.275Z,29.76
2022-08-26T15:19:53.464Z,29.97
2022-08-26T15:22:21.614Z,30.12
2022-08-26T15:24:51.828Z,30.51
2022-08-26T15:27:22.277Z,30.85
2022-08-26T15:29:50.616Z,30.92
2022-08-26T15:32:20.839Z,30.94
2022-08-26T15:34:49.971Z,30.99
2022-08-26T15:37:20.605Z,30.97
2022-08-26T15:39:49.137Z,31.00
2022-08-26T15:42:17.211Z,30.86
2022-08-26T15:44:45.696Z,30.87
2022-08-26T15:47:14.058Z,30.85
2022-08-26T15:49:43.502Z,29.82
2022-08-26T15:52:11.888Z,29.59
2022-08-26T15:54:39.935Z,28.98
2022-08-26T15:57:11.460Z,29.07
2022-08-26T15:59:43.178Z,28.04
2022-08-26T16:02:11.384Z,26.87
2022-08-26T16:04:39.674Z,25.22
2022-08-26T16:07:09.201Z,25.16
2022-08-26T16:09:37.469Z,25.42
2022-08-26T16:12:05.938Z,25.38
2022-08-26T16:14:34.515Z,24.90
2022-08-26T16:17:02.499Z,24.12
2022-08-26T16:19:30.571Z,23.77
2022-08-26T16:21:58.532Z,23.64
2022-08-26T16:24:30.550Z,23.84
2022-08-26T16:26:59.081Z,24.20
2022-08-26T16:29:27.365Z,23.81
2022-08-26T16:31:57.595Z,23.79
2022-08-26T16:34:25.617Z,23.98
2022-08-26T16:36:53.666Z,23.33
2022-08-26T16:39:21.699Z,23.56
2022-08-26T16:41:51.544Z,23.03
2022-08-26T16:44:19.573Z,23.03
2022-08-26T16:46:48.036Z,23.61
2022-08-26T16:49:19.583Z,23.35
2022-08-26T16:51:50.593Z,23.07
2022-08-26T16:54:18.862Z,23.02
2022-08-26T16:56:46.830Z,22.63
2022-08-26T16:59:16.161Z,22.14
2022-08-26T17:01:44.206Z,22.25
2022-08-26T17:04:12.456Z,22.17
2022-08-26T17:06:41.256Z,21.85
2022-08-26T17:09:09.779Z,21.94
2022-08-26T17:11:37.962Z,22.00
2022-08-26T17:14:08.332Z,22.05
2022-08-26T17:16:38.778Z,22.40
2022-08-26T17:19:09.155Z,22.33
2022-08-26T17:21:38.170Z,22.35
2022-08-26T17:24:07.259Z,22.25
2022-08-26T17:26:37.936Z,22.44
2022-08-26T17:29:07.289Z,22.51
2022-08-26T17:31:35.365Z,22.66
2022-08-26T17:34:11.151Z,22.98
2022-08-26T17:36:40.848Z,22.89
2022-08-26T17:39:11.596Z,22.47
2022-08-26T17:41:39.569Z,22.28
2022-08-26T17:44:08.082Z,22.51
2022-08-26T17:46:38.429Z,22.48
2022-08-26T17:49:08.369Z,22.03
2022-08-26T17:51:36.369Z,21.65
2022-08-26T17:54:04.688Z,21.54
2022-08-26T17:56:32.571Z,21.96
2022-08-26T17:59:02.350Z,21.96
2022-08-26T18:01:34.789Z,21.91
2022-08-26T18:04:04.622Z,21.52
2022-08-26T18:06:35.686Z,21.18
2022-08-26T18:09:04.424Z,20.71
2022-08-26T18:11:32.819Z,20.90
2022-08-26T18:14:01.865Z,21.47
2022-08-26T18:16:32.319Z,21.73
2022-08-26T18:19:02.200Z,22.04
2022-08-26T18:21:30.378Z,22.00
2022-08-26T18:24:00.194Z,21.95
2022-08-26T18:26:31.111Z,21.71
2022-08-26T18:28:59.946Z,22.15
2022-08-26T18:31:28.044Z,21.88
2022-08-26T18:33:56.479Z,21.15
2022-08-26T18:36:26.170Z,20.36
2022-08-26T18:38:57.326Z,20.74
2022-08-26T18:41:28.800Z,21.10
2022-08-26T18:43:57.173Z,21.61
2022-08-26T18:46:27.938Z,22.11
2022-08-26T18:48:57.088Z,22.13
2022-08-26T18:51:27.863Z,21.69
2022-08-26T18:53:55.759Z,22.15
2022-08-26T18:56:29.073Z,22.12
2022-08-26T18:58:59.881Z,21.82
2022-08-26T19:01:29.716Z,22.01
2022-08-26T19:03:58.293Z,22.18
2022-08-26T19:06:27.036Z,21.91
2022-08-26T19:08:55.788Z,21.94
2022-08-26T19:11:31.610Z,21.86
2022-08-26T19:14:06.414Z,21.97
2022-08-26T19:16:34.681Z,22.01
2022-08-26T19:19:02.831Z,22.22
2022-08-26T19:21:34.524Z,22.14
2022-08-26T19:24:09.275Z,22.08
2022-08-26T19:26:38.884Z,22.21
2022-08-26T19:29:08.278Z,22.37
2022-08-26T19:31:36.461Z,22.52
2022-08-26T19:34:05.322Z,22.53
2022-08-26T19:36:34.229Z,22.51
2022-08-26T19:39:05.431Z,22.62
2022-08-26T19:41:38.004Z,22.67
2022-08-26T19:44:10.142Z,22.17
2022-08-26T19:49:11.812Z,22.13
2022-08-26T19:51:39.882Z,22.17
2022-08-26T19:54:07.822Z,21.93
2022-08-26T19:56:36.554Z,21.95
2022-08-26T19:59:04.598Z,22.13
2022-08-26T20:01:33.855Z,22.17
2022-08-26T20:04:04.849Z,21.87
2022-08-26T20:06:32.810Z,21.93
2022-08-26T20:09:00.679Z,21.85
2022-08-26T20:11:29.379Z,21.94
2022-08-26T20:13:59.692Z,21.95
2022-08-26T20:16:27.688Z,21.92
2022-08-26T20:19:14.338Z,22.05
2022-08-26T20:21:42.947Z,21.97
2022-08-26T20:24:13.865Z,22.16
2022-08-26T20:26:44.063Z,22.26
2022-08-26T20:29:13.892Z,21.77
2022-08-26T20:31:43.991Z,22.02
2022-08-26T20:34:18.939Z,22.03
2022-08-26T20:36:48.475Z,22.23
2022-08-26T20:39:17.595Z,22.29
2022-08-26T20:41:45.678Z,22.15
2022-08-26T20:44:16.682Z,22.21
2022-08-26T20:46:44.847Z,22.21
2022-08-26T20:49:13.233Z,22.17
2022-08-26T20:51:43.812Z,21.90
2022-08-26T20:54:13.076Z,22.03
2022-08-26T20:56:41.422Z,21.49
2022-08-26T20:59:09.665Z,20.37
2022-08-26T21:01:42.447Z,20.58
2022-08-26T21:04:13.010Z,20.87
2022-08-26T21:06:52.112Z,21.24
2022-08-26T21:09:20.667Z,21.63
2022-08-26T21:11:49.907Z,21.79
2022-08-26T21:14:19.013Z,21.77
2022-08-26T21:16:47.789Z,21.85
2022-08-26T21:19:18.571Z,21.83
2022-08-26T21:21:49.333Z,21.91
2022-08-26T21:24:17.575Z,22.03
2022-08-26T21:26:45.593Z,22.09
2022-08-26T21:29:14.174Z,22.17
2022-08-26T21:31:46.372Z,22.19
2022-08-26T21:34:15.310Z,22.22
2022-08-26T21:36:43.294Z,22.22
2022-08-26T21:39:12.895Z,22.18
2022-08-26T21:41:42.223Z,22.26
2022-08-26T21:44:14.225Z,22.22
2022-08-26T21:46:46.722Z,22.12
2022-08-26T21:49:16.704Z,22.07
2022-08-26T21:51:46.753Z,22.10
2022-08-26T21:54:17.416Z,22.01
2022-08-26T21:56:47.149Z,22.06
2022-08-26T21:59:17.543Z,22.07
2022-08-26T22:01:48.104Z,21.82
2022-08-26T22:04:18.801Z,21.59
2022-08-26T22:06:48.757Z,21.48
2022-08-26T22:09:19.848Z,21.52
2022-08-26T22:11:48.477Z,21.71
2022-08-26T22:14:21.971Z,21.84
2022-08-26T22:16:51.056Z,21.89
2022-08-26T22:19:20.011Z,21.91
2022-08-26T22:21:50.337Z,21.74
2022-08-26T22:24:24.686Z,21.82
2022-08-26T22:26:52.999Z,21.93
2022-08-26T22:29:21.015Z,21.95
2022-08-26T22:31:51.410Z,21.95
2022-08-26T22:34:21.065Z,21.97
2022-08-26T22:36:50.377Z,22.05
2022-08-26T22:39:25.341Z,22.05
2022-08-26T22:41:54.125Z,21.99
2022-08-26T22:44:23.154Z,21.89
2022-08-26T22:46:54.240Z,21.68
2022-08-26T22:49:22.559Z,21.71
2022-08-26T22:51:51.179Z,21.87
2022-08-26T22:54:20.352Z,21.96
2022-08-26T22:56:48.622Z,22.01
2022-08-26T22:59:16.775Z,22.04
2022-08-26T23:01:46.393Z,22.10
2022-08-26T23:04:14.547Z,22.07
2022-08-26T23:06:47.541Z,22.07
2022-08-26T23:09:20.078Z,22.07
2022-08-26T23:11:49.895Z,22.04
2022-08-26T23:14:20.193Z,22.09
2022-08-26T23:16:48.497Z,21.80
2022-08-26T23:19:18.607Z,21.36
2022-08-26T23:21:46.790Z,21.53
2022-08-26T23:24:15.080Z,21.63
2022-08-26T23:26:45.506Z,21.71
2022-08-26T23:29:15.531Z,21.73
2022-08-26T23:31:46.013Z,21.85
2022-08-26T23:34:36.084Z,21.78
2022-08-26T23:37:06.213Z,21.84
2022-08-26T23:39:38.135Z,21.80
2022-08-26T23:42:10.826Z,21.49
2022-08-26T23:44:38.835Z,21.77
2022-08-26T23:47:07.409Z,21.86
2022-08-26T23:49:36.606Z,21.81
2022-08-26T23:52:23.386Z,21.79
2022-08-26T23:54:52.360Z,21.81
2022-08-26T23:57:23.959Z,21.78
2022-08-26T23:59:52.396Z,21.82
